Time;durP1;ratioP1;P1;durP2;ratioP2;P2;SDS_P1;SDS_P2;PMS_P1;PMS_P2;Temp;Humidity;BMP_temperature;BMP_pressure;BME280_temperature;BME280_humidity;BME280_pressure;Samples;Min_cycle;Max_cycle;Signal;HPM_P1;HPM_P2
2022/12/28 00:01:32;;;;;;;1.42;1.30;;;1.40;99.90;;;;;;5008163;28;20054;-66
2022/12/28 00:04:01;;;;;;;2.78;1.60;;;1.40;99.90;;;;;;5008490;28;20059;-69
2022/12/28 00:06:28;;;;;;;2.55;1.33;;;1.40;99.90;;;;;;5010477;28;20273;-65
2022/12/28 00:08:56;;;;;;;1.60;1.40;;;1.40;99.90;;;;;;5006749;28;20566;-65
2022/12/28 00:11:25;;;;;;;2.85;1.50;;;1.40;99.90;;;;;;5008868;28;20063;-67
2022/12/28 00:14:00;;;;;;;5.85;1.70;;;1.40;99.90;;;;;;5006925;28;20103;-64
2022/12/28 00:16:31;;;;;;;2.33;1.30;;;1.40;99.90;;;;;;5008103;28;20099;-66
2022/12/28 00:19:02;;;;;;;2.75;1.50;;;1.40;99.90;;;;;;5009646;28;20107;-66
2022/12/28 00:21:29;;;;;;;2.38;1.65;;;1.40;99.90;;;;;;5009947;28;20060;-64
2022/12/28 00:23:56;;;;;;;;;;;1.40;99.90;;;;;;5006998;28;20148;-63
2022/12/28 00:26:26;;;;;;;2.78;1.30;;;1.30;99.90;;;;;;5007398;28;20218;-66
2022/12/28 00:28:53;;;;;;;3.55;1.40;;;1.40;99.90;;;;;;5010022;28;20052;-64
2022/12/28 00:31:29;;;;;;;3.22;1.55;;;1.40;99.90;;;;;;5004844;28;20041;-65
2022/12/28 00:33:56;;;;;;;5.72;1.85;;;1.30;99.90;;;;;;5006964;28;20099;-66
2022/12/28 00:36:23;;;;;;;;;;;1.40;99.90;;;;;;5007899;28;20041;-66
2022/12/28 00:38:49;;;;;;;5.25;1.88;;;1.30;99.90;;;;;;5009262;28;20175;-63
2022/12/28 00:41:16;;;;;;;3.08;2.00;;;1.40;99.90;;;;;;5008329;28;20256;-64
2022/12/28 00:43:44;;;;;;;3.67;1.63;;;1.40;99.90;;;;;;5006734;28;20059;-65
2022/12/28 00:46:12;;;;;;;4.07;1.50;;;1.40;99.90;;;;;;5010606;28;20048;-66
2022/12/28 00:48:39;;;;;;;2.80;1.58;;;1.30;99.90;;;;;;5010344;28;20198;-64
2022/12/28 00:51:17;;;;;;;6.18;1.55;;;1.40;99.90;;;;;;5011687;28;20529;-64
2022/12/28 00:53:44;;;;;;;4.93;1.40;;;1.40;99.90;;;;;;5012319;28;20060;-65
2022/12/28 00:56:17;;;;;;;3.30;1.77;;;1.40;99.90;;;;;;5011422;28;20041;-65
2022/12/28 00:58:45;;;;;;;3.50;1.60;;;1.40;99.90;;;;;;5016942;28;20480;-66
2022/12/28 01:01:29;;;;;;;3.22;1.83;;;1.40;99.90;;;;;;5025377;28;20164;-66
2022/12/28 01:03:57;;;;;;;1.40;1.10;;;1.40;99.90;;;;;;5014118;28;20042;-65
2022/12/28 01:06:26;;;;;;;3.45;1.50;;;1.40;99.90;;;;;;5014557;28;20779;-66
2022/12/28 01:08:53;;;;;;;4.40;1.75;;;1.40;99.90;;;;;;5010988;28;20542;-64
2022/12/28 01:11:25;;;;;;;2.80;1.70;;;1.30;99.90;;;;;;5011855;28;20115;-64
2022/12/28 01:13:55;;;;;;;5.00;1.48;;;1.30;99.90;;;;;;5012663;28;20095;-64
2022/12/28 01:16:31;;;;;;;1.42;1.33;;;1.30;99.90;;;;;;5009148;28;20051;-67
2022/12/28 01:19:00;;;;;;;3.97;2.28;;;1.30;99.90;;;;;;5027583;28;20042;-67
2022/12/28 01:21:29;;;;;;;3.35;1.67;;;1.30;99.90;;;;;;5010648;28;20037;-66
2022/12/28 01:23:59;;;;;;;2.72;1.75;;;1.30;99.90;;;;;;5004770;28;20130;-66
2022/12/28 01:26:27;;;;;;;2.08;1.70;;;1.30;99.90;;;;;;5027629;28;20045;-66
2022/12/28 01:28:56;;;;;;;5.30;2.55;;;1.30;99.90;;;;;;5006308;28;20569;-66
2022/12/28 01:31:23;;;;;;;2.40;2.20;;;1.30;99.90;;;;;;5004828;28;20065;-68
2022/12/28 01:33:50;;;;;;;2.42;1.20;;;1.30;99.90;;;;;;5025684;28;20052;-66
2022/12/28 01:36:20;;;;;;;1.92;1.52;;;1.30;99.90;;;;;;5009944;28;20570;-64
2022/12/28 01:38:50;;;;;;;5.20;1.52;;;1.30;99.90;;;;;;5007940;28;20076;-68
2022/12/28 01:41:18;;;;;;;10.65;2.47;;;1.30;99.90;;;;;;5009385;28;20571;-63
2022/12/28 01:43:51;;;;;;;5.10;1.58;;;1.30;99.90;;;;;;5001825;28;20566;-65
2022/12/28 01:46:44;;;;;;;3.33;1.73;;;1.30;99.90;;;;;;5014771;28;20052;-65
2022/12/28 01:49:18;;;;;;;9.45;3.22;;;1.30;99.90;;;;;;5011927;28;20980;-64
2022/12/28 01:51:48;;;;;;;1.98;1.42;;;1.30;99.90;;;;;;5020195;28;20045;-64
2022/12/28 01:54:15;;;;;;;7.70;1.83;;;1.30;99.90;;;;;;5021172;28;20045;-64
2022/12/28 01:56:43;;;;;;;1.55;1.42;;;1.30;99.90;;;;;;5010217;28;20512;-66
2022/12/28 01:59:11;;;;;;;2.03;1.83;;;1.30;99.90;;;;;;5003841;28;20080;-64
2022/12/28 02:01:39;;;;;;;2.92;1.88;;;1.30;99.90;;;;;;5012988;28;20361;-63
2022/12/28 02:04:05;;;;;;;5.47;2.20;;;1.30;99.90;;;;;;5009940;28;20060;-65
2022/12/28 02:06:32;;;;;;;2.95;1.50;;;1.30;99.90;;;;;;5009483;28;20057;-65
2022/12/28 02:09:12;;;;;;;;;;;1.40;99.90;;;;;;5011654;28;20045;-64
2022/12/28 02:11:40;;;;;;;2.42;1.55;;;1.40;99.90;;;;;;5020719;28;20213;-64
2022/12/28 02:14:08;;;;;;;4.63;1.70;;;1.40;99.90;;;;;;5022687;28;20045;-66
2022/12/28 02:16:34;;;;;;;3.92;2.17;;;1.40;99.90;;;;;;5010095;28;20111;-63
2022/12/28 02:19:02;;;;;;;2.70;1.83;;;1.40;99.90;;;;;;5010181;28;20060;-66
2022/12/28 02:22:08;;;;;;;3.45;2.03;;;1.40;99.90;;;;;;5011062;28;20128;-66
2022/12/28 02:25:12;;;;;;;3.03;2.20;;;1.40;99.90;;;;;;5009644;28;20069;-66
2022/12/28 02:28:21;;;;;;;4.50;1.95;;;1.40;99.90;;;;;;5027335;28;20127;-64
2022/12/28 02:30:58;;;;;;;3.70;1.93;;;1.50;99.90;;;;;;4968697;28;20093;-64
2022/12/28 02:33:37;;;;;;;3.83;2.05;;;1.50;99.90;;;;;;5008119;28;20068;-66
2022/12/28 02:36:34;;;;;;;3.63;2.28;;;1.60;99.90;;;;;;5019011;28;20342;-65
2022/12/28 02:39:09;;;;;;;4.13;2.22;;;1.60;99.90;;;;;;5009539;28;20626;-66
2022/12/28 02:41:39;;;;;;;5.95;3.33;;;1.60;99.90;;;;;;5013058;28;20348;-65
2022/12/28 02:44:06;;;;;;;4.25;2.00;;;1.70;99.90;;;;;;5006849;28;20042;-67
2022/12/28 02:52:43;;;;;;;6.65;2.17;;;1.70;99.90;;;;;;5023041;28;20045;-65
2022/12/28 02:58:24;;;;;;;3.92;2.40;;;1.80;99.90;;;;;;5009879;28;20553;-65
2022/12/28 03:01:03;;;;;;;3.13;1.92;;;1.80;99.90;;;;;;5008029;28;20170;-65
2022/12/28 03:04:02;;;;;;;2.33;1.88;;;1.80;99.90;;;;;;5026547;28;20115;-66
2022/12/28 03:09:53;;;;;;;3.92;2.05;;;1.90;99.90;;;;;;5010140;28;20053;-64
2022/12/28 03:12:32;;;;;;;3.72;2.05;;;1.90;99.90;;;;;;5010980;28;20512;-65
2022/12/28 03:15:09;;;;;;;2.78;2.10;;;1.90;99.90;;;;;;5011789;28;20051;-66
2022/12/28 03:31:44;;;;;;;6.78;1.88;;;1.90;99.90;;;;;;5007754;28;20498;-66
2022/12/28 03:34:13;;;;;;;2.85;1.83;;;1.90;99.90;;;;;;5008853;28;20245;-67
2022/12/28 03:36:51;;;;;;;2.97;1.75;;;1.90;99.90;;;;;;5017873;28;20072;-65
2022/12/28 03:39:43;;;;;;;10.23;2.45;;;1.90;99.90;;;;;;5008498;28;20049;-67
2022/12/28 03:45:37;;;;;;;2.67;1.70;;;1.90;99.90;;;;;;5006523;28;20045;-68
2022/12/28 03:48:14;;;;;;;2.42;1.52;;;1.90;99.90;;;;;;5008412;28;20492;-66
2022/12/28 03:50:44;;;;;;;3.72;1.92;;;1.90;99.90;;;;;;5028106;28;20571;-67
2022/12/28 03:53:16;;;;;;;4.10;2.40;;;1.90;99.90;;;;;;5002428;28;20416;-65
2022/12/28 03:55:43;;;;;;;3.42;1.73;;;1.90;99.90;;;;;;5009524;28;20503;-66
2022/12/28 03:58:11;;;;;;;2.33;1.98;;;1.90;99.90;;;;;;5006170;28;20464;-65
2022/12/28 04:00:38;;;;;;;;;;;1.80;99.90;;;;;;5007184;28;20046;-65
2022/12/28 04:03:06;;;;;;;3.50;2.20;;;1.80;99.90;;;;;;5006769;28;20224;-64
2022/12/28 04:05:34;;;;;;;2.72;1.63;;;1.80;99.90;;;;;;5023925;28;20455;-65
2022/12/28 04:08:00;;;;;;;11.43;2.13;;;1.80;99.90;;;;;;5023362;28;20440;-65
2022/12/28 04:10:27;;;;;;;2.83;1.85;;;1.80;99.90;;;;;;5009149;28;20069;-66
2022/12/28 04:12:55;;;;;;;5.60;2.30;;;1.70;99.90;;;;;;5006950;28;20045;-66
2022/12/28 04:15:54;;;;;;;6.25;2.30;;;1.70;99.90;;;;;;5006920;28;20168;-64
2022/12/28 04:18:21;;;;;;;3.28;1.75;;;1.70;99.90;;;;;;5007790;28;20050;-64
2022/12/28 04:20:48;;;;;;;3.75;1.42;;;1.60;99.90;;;;;;5005395;28;20164;-65
2022/12/28 04:23:15;;;;;;;;;;;1.60;99.90;;;;;;5019894;28;20053;-67
2022/12/28 04:25:42;;;;;;;1.70;1.27;;;1.60;99.90;;;;;;5010635;28;19929;-66
2022/12/28 04:28:09;;;;;;;3.45;1.77;;;1.60;99.90;;;;;;5010171;28;20130;-64
2022/12/28 04:30:55;;;;;;;1.92;1.73;;;1.50;99.90;;;;;;5012468;28;20102;-67
2022/12/28 04:33:22;;;;;;;5.55;1.48;;;1.50;99.90;;;;;;5009392;28;20041;-66
2022/12/28 04:35:50;;;;;;;2.83;1.83;;;1.50;99.90;;;;;;5009943;28;20037;-67
2022/12/28 04:38:17;;;;;;;4.47;1.80;;;1.50;99.90;;;;;;5012307;28;20559;-65
2022/12/28 04:40:44;;;;;;;8.73;1.70;;;1.40;99.90;;;;;;5013961;28;20113;-66
2022/12/28 04:43:10;;;;;;;3.45;1.98;;;1.40;99.90;;;;;;5013959;28;20443;-65
2022/12/28 04:45:37;;;;;;;;;;;1.40;99.90;;;;;;5013009;28;20173;-64
2022/12/28 04:48:04;;;;;;;2.80;1.88;;;1.40;99.90;;;;;;5009550;28;19925;-66
2022/12/28 04:50:31;;;;;;;3.05;1.50;;;1.40;99.90;;;;;;5014502;28;20049;-65
2022/12/28 04:52:58;;;;;;;;;;;1.40;99.90;;;;;;5013011;28;20045;-66
2022/12/28 04:55:25;;;;;;;3.35;1.67;;;1.40;99.90;;;;;;5011946;28;20030;-64
2022/12/28 04:57:59;;;;;;;4.85;2.28;;;1.40;99.90;;;;;;5013497;28;20080;-66
2022/12/28 05:00:26;;;;;;;4.32;1.95;;;1.40;99.90;;;;;;5010535;28;20185;-67
2022/12/28 05:02:53;;;;;;;7.15;2.03;;;1.40;99.90;;;;;;5010016;28;20557;-65
2022/12/28 05:05:20;;;;;;;3.50;2.10;;;1.40;99.90;;;;;;5009227;28;20393;-64
2022/12/28 05:07:46;;;;;;;;;;;1.40;99.90;;;;;;5010810;28;20119;-64
2022/12/28 05:10:13;;;;;;;3.03;2.30;;;1.40;99.90;;;;;;5011970;28;19925;-65
2022/12/28 05:12:39;;;;;;;;;;;1.40;99.90;;;;;;5022208;28;22473;-65
2022/12/28 05:15:07;;;;;;;3.42;1.80;;;1.30;99.90;;;;;;5010789;28;19936;-65
2022/12/28 05:17:34;;;;;;;4.38;2.03;;;1.30;99.90;;;;;;5011218;28;20041;-66
2022/12/28 05:20:01;;;;;;;;;;;1.30;99.90;;;;;;5010275;28;20264;-66
2022/12/28 05:22:28;;;;;;;5.40;2.45;;;1.30;99.90;;;;;;5010641;28;20475;-66
2022/12/28 05:24:54;;;;;;;4.97;1.65;;;1.20;99.90;;;;;;5010402;28;20427;-65
2022/12/28 05:27:21;;;;;;;;;;;1.20;99.90;;;;;;5009479;28;20172;-63
2022/12/28 05:29:48;;;;;;;4.93;1.83;;;1.20;99.90;;;;;;5009249;28;20059;-65
2022/12/28 05:32:15;;;;;;;3.88;1.75;;;1.20;99.90;;;;;;5011593;28;20361;-66
2022/12/28 05:34:41;;;;;;;;;;;1.20;99.90;;;;;;5009525;28;20053;-64
2022/12/28 05:37:08;;;;;;;2.08;1.65;;;1.20;99.90;;;;;;5009209;28;19960;-67
2022/12/28 05:39:35;;;;;;;;;;;1.20;99.90;;;;;;5007846;28;20037;-64
2022/12/28 05:42:02;;;;;;;3.33;2.22;;;1.10;99.90;;;;;;5010721;28;19925;-66
2022/12/28 05:44:30;;;;;;;3.30;2.13;;;1.10;99.90;;;;;;5010503;28;20044;-66
2022/12/28 05:46:56;;;;;;;3.00;2.05;;;1.10;99.90;;;;;;5007687;28;20041;-66
2022/12/28 05:49:23;;;;;;;2.42;1.80;;;1.10;99.90;;;;;;5010762;28;20367;-65
2022/12/28 05:51:53;;;;;;;;;;;1.10;99.90;;;;;;5011372;28;20586;-65
2022/12/28 05:54:20;;;;;;;3.92;2.00;;;1.00;99.90;;;;;;5010959;28;19925;-66
2022/12/28 05:56:48;;;;;;;;;;;1.00;99.90;;;;;;5013664;28;20041;-65
2022/12/28 05:59:15;;;;;;;3.75;2.47;;;1.10;99.90;;;;;;5011513;28;20221;-65
2022/12/28 06:01:43;;;;;;;3.17;2.08;;;1.00;99.90;;;;;;5012236;28;20374;-64
2022/12/28 06:04:15;;;;;;;5.93;1.98;;;1.00;99.90;;;;;;5007966;28;20045;-64
2022/12/28 06:06:43;;;;;;;2.33;1.75;;;1.00;99.90;;;;;;5011281;28;20056;-65
2022/12/28 06:09:11;;;;;;;3.78;2.17;;;1.00;99.90;;;;;;5011609;28;20249;-66
2022/12/28 06:11:38;;;;;;;2.70;1.83;;;0.90;99.90;;;;;;5007834;28;20542;-62
2022/12/28 06:14:05;;;;;;;3.08;1.92;;;0.90;99.90;;;;;;5011108;28;20041;-67
2022/12/28 06:16:38;;;;;;;2.28;1.85;;;0.90;99.90;;;;;;5008166;28;20459;-64
2022/12/28 06:19:07;;;;;;;2.10;1.80;;;0.90;99.90;;;;;;5011277;28;20061;-64
2022/12/28 06:21:36;;;;;;;2.03;1.70;;;0.90;99.90;;;;;;5010607;28;20037;-65
2022/12/28 06:24:04;;;;;;;3.13;1.75;;;0.90;99.90;;;;;;5020968;28;20048;-65
2022/12/28 06:26:33;;;;;;;3.25;1.85;;;0.90;99.90;;;;;;5010720;28;20049;-66
2022/12/28 06:29:02;;;;;;;4.18;2.30;;;0.90;99.90;;;;;;5009475;28;20152;-68
2022/12/28 06:31:32;;;;;;;7.22;2.22;;;0.80;99.90;;;;;;5008099;28;20048;-64
2022/12/28 06:34:00;;;;;;;5.38;1.92;;;0.90;99.90;;;;;;5011791;28;20458;-66
2022/12/28 06:36:32;;;;;;;6.55;2.00;;;0.80;99.90;;;;;;5009286;28;20045;-66
2022/12/28 06:39:01;;;;;;;4.72;1.80;;;0.80;99.90;;;;;;5010532;28;20045;-67
2022/12/28 06:41:28;;;;;;;4.05;1.90;;;0.80;99.90;;;;;;5010581;28;20053;-65
2022/12/28 06:43:57;;;;;;;2.53;1.52;;;0.80;99.90;;;;;;5010325;28;20059;-65
2022/12/28 06:46:29;;;;;;;3.65;1.73;;;0.80;99.90;;;;;;5009236;28;20137;-65
2022/12/28 06:48:56;;;;;;;1.92;1.77;;;0.80;99.90;;;;;;5005301;28;20116;-62
2022/12/28 06:51:27;;;;;;;1.40;1.25;;;0.80;99.90;;;;;;5002417;28;20053;-52
2022/12/28 06:53:54;;;;;;;2.65;1.33;;;0.80;99.90;;;;;;5009956;28;20041;-49
2022/12/28 06:56:23;;;;;;;2.17;1.83;;;0.80;99.90;;;;;;5010641;28;20537;-49
2022/12/28 06:58:51;;;;;;;2.55;1.67;;;0.80;99.90;;;;;;5007568;28;20048;-48
2022/12/28 07:01:33;;;;;;;3.08;1.55;;;0.90;99.90;;;;;;5025028;28;20044;-49
2022/12/28 07:04:04;;;;;;;5.00;1.73;;;0.90;99.90;;;;;;5009741;28;20068;-47
2022/12/28 07:06:36;;;;;;;5.45;2.05;;;0.80;99.90;;;;;;5007113;28;20123;-49
2022/12/28 07:09:06;;;;;;;4.10;2.13;;;0.90;99.90;;;;;;5006167;28;20056;-48
2022/12/28 07:11:33;;;;;;;5.07;2.33;;;0.90;99.90;;;;;;5008773;28;20095;-48
2022/12/28 07:14:00;;;;;;;6.18;2.67;;;0.90;99.90;;;;;;5007453;28;20508;-47
2022/12/28 07:16:28;;;;;;;6.60;2.75;;;0.90;99.90;;;;;;5022734;28;20041;-52
2022/12/28 07:18:54;;;;;;;6.95;3.55;;;0.90;99.90;;;;;;5008669;28;20295;-49
2022/12/28 07:21:28;;;;;;;4.20;2.50;;;0.90;99.90;;;;;;5024518;28;20045;-48
2022/12/28 07:23:55;;;;;;;2.85;2.17;;;1.00;99.90;;;;;;5008443;28;20104;-60
2022/12/28 07:26:25;;;;;;;5.25;2.00;;;1.10;99.90;;;;;;5009123;28;20052;-48
2022/12/28 07:28:56;;;;;;;3.97;2.10;;;1.10;99.90;;;;;;5006885;28;20466;-52
2022/12/28 07:31:29;;;;;;;9.00;2.40;;;1.10;99.90;;;;;;5008535;28;20112;-52
2022/12/28 07:33:58;;;;;;;3.33;2.00;;;1.20;99.90;;;;;;5007164;28;20041;-51
2022/12/28 07:36:27;;;;;;;4.90;2.20;;;1.30;99.90;;;;;;5007765;28;20041;-50
2022/12/28 07:38:54;;;;;;;4.88;2.05;;;1.50;99.90;;;;;;5005019;28;20465;-47
2022/12/28 07:41:24;;;;;;;4.18;2.40;;;1.70;99.90;;;;;;5007425;28;20519;-49
2022/12/28 07:43:51;;;;;;;5.18;2.13;;;2.00;99.90;;;;;;5006305;28;20385;-49
2022/12/28 07:46:24;;;;;;;3.28;2.13;;;2.40;99.90;;;;;;5007468;28;20709;-48
2022/12/28 07:48:51;;;;;;;4.82;2.58;;;2.70;99.90;;;;;;5007251;28;20049;-49
2022/12/28 07:51:22;;;;;;;4.35;3.15;;;3.10;99.90;;;;;;5006525;28;20045;-53
2022/12/28 07:53:50;;;;;;;7.15;2.50;;;3.50;99.90;;;;;;5008061;28;20053;-49
2022/12/28 07:56:18;;;;;;;2.35;1.98;;;3.90;99.90;;;;;;5005963;28;20119;-51
2022/12/28 07:58:49;;;;;;;4.78;2.28;;;4.20;99.90;;;;;;5012263;28;20268;-66
2022/12/28 08:01:16;;;;;;;4.43;2.45;;;4.50;99.90;;;;;;5011075;28;20033;-48
2022/12/28 08:03:43;;;;;;;4.80;2.35;;;4.70;99.90;;;;;;5012243;28;20414;-48
2022/12/28 08:06:13;;;;;;;5.32;2.33;;;4.80;99.90;;;;;;5010882;28;20507;-52
2022/12/28 08:08:42;;;;;;;9.70;2.72;;;4.90;99.90;;;;;;5014206;28;20072;-51
2022/12/28 08:11:12;;;;;;;4.68;2.20;;;4.80;99.90;;;;;;5011239;28;20339;-49
2022/12/28 08:13:41;;;;;;;4.00;1.70;;;4.80;99.90;;;;;;5015923;28;20487;-50
2022/12/28 08:16:10;;;;;;;3.20;2.28;;;4.70;99.90;;;;;;5015364;28;20151;-48
2022/12/28 08:18:39;;;;;;;3.80;1.98;;;4.70;99.90;;;;;;5013834;28;20232;-48
2022/12/28 08:21:13;;;;;;;5.57;1.98;;;4.70;99.90;;;;;;5015318;28;20048;-61
2022/12/28 08:23:40;;;;;;;4.72;1.85;;;4.70;99.90;;;;;;5011767;28;20045;-50
2022/12/28 08:26:13;;;;;;;3.70;2.13;;;4.80;99.90;;;;;;5012813;28;20045;-51
2022/12/28 08:28:41;;;;;;;6.15;2.60;;;5.00;99.90;;;;;;5010317;28;20050;-52
2022/12/28 08:31:11;;;;;;;4.25;2.10;;;5.30;99.90;;;;;;5011206;28;20262;-55
2022/12/28 08:33:38;;;;;;;2.70;1.98;;;5.40;99.90;;;;;;5013993;28;20130;-51
2022/12/28 08:36:05;;;;;;;;;;;5.50;99.90;;;;;;5012741;28;20353;-53
2022/12/28 08:38:33;;;;;;;4.82;2.22;;;5.60;99.90;;;;;;5009574;28;20221;-55
2022/12/28 08:41:02;;;;;;;3.65;1.92;;;5.60;99.90;;;;;;5010565;28;20255;-55
2022/12/28 08:43:30;;;;;;;6.38;2.33;;;5.70;99.90;;;;;;5021613;28;20424;-56
2022/12/28 08:46:00;;;;;;;3.72;2.10;;;5.80;99.90;;;;;;5024380;28;20044;-52
2022/12/28 08:48:28;;;;;;;3.95;2.22;;;5.90;99.90;;;;;;5011710;28;20129;-55
2022/12/28 08:51:01;;;;;;;4.88;2.60;;;6.00;99.90;;;;;;5008471;28;20675;-55
2022/12/28 08:53:28;;;;;;;6.68;2.10;;;6.00;99.90;;;;;;5010568;28;20044;-47
2022/12/28 08:55:54;;;;;;;;;;;6.10;99.90;;;;;;5012693;28;20308;-48
2022/12/28 08:58:24;;;;;;;6.15;2.55;;;6.30;99.90;;;;;;5010182;28;20205;-49
2022/12/28 09:00:51;;;;;;;8.35;2.92;;;6.40;99.90;;;;;;5010840;28;20048;-55
2022/12/28 09:03:17;;;;;;;;;;;6.60;99.90;;;;;;5009469;28;20079;-53
2022/12/28 09:05:44;;;;;;;2.50;1.90;;;6.60;99.90;;;;;;5009751;28;20091;-52
2022/12/28 09:08:15;;;;;;;3.83;2.00;;;6.70;99.90;;;;;;5009286;28;20054;-52
2022/12/28 09:10:42;;;;;;;6.60;2.65;;;6.70;99.90;;;;;;5009742;28;20319;-52
2022/12/28 09:13:08;;;;;;;;;;;6.80;99.90;;;;;;5009963;28;20594;-51
2022/12/28 09:15:35;;;;;;;4.43;2.25;;;6.70;99.90;;;;;;5021631;28;20039;-50
2022/12/28 09:18:02;;;;;;;4.18;1.88;;;6.70;99.90;;;;;;5010543;28;20563;-50
2022/12/28 09:20:29;;;;;;;;;;;6.60;99.90;;;;;;5011378;28;20139;-52
2022/12/28 09:22:56;;;;;;;3.53;1.70;;;6.50;99.90;;;;;;5010244;28;20032;-51
2022/12/28 09:25:22;;;;;;;;;;;6.40;99.90;;;;;;5013140;28;20142;-53
2022/12/28 09:27:49;;;;;;;5.93;2.63;;;6.40;99.90;;;;;;5007746;28;19924;-50
2022/12/28 09:30:23;;;;;;;4.15;2.45;;;6.40;99.90;;;;;;5010031;28;20124;-51
2022/12/28 09:33:57;;;;;;;;;;;6.40;99.90;;;;;;5008901;28;20049;-53
2022/12/28 09:35:36;;;;;;;4.70;2.70;;;6.40;99.90;;;;;;5009137;28;19936;-56
2022/12/28 09:38:03;;;;;;;;;;;6.60;99.90;;;;;;5008229;28;20146;-55
2022/12/28 09:40:30;;;;;;;4.28;2.78;;;6.80;99.90;;;;;;5008377;28;20337;-52
2022/12/28 09:42:56;;;;;;;3.45;1.92;;;7.10;99.90;;;;;;5012696;28;20135;-53
2022/12/28 09:45:24;;;;;;;;;;;7.30;99.90;;;;;;5009512;28;20053;-57
2022/12/28 09:47:54;;;;;;;2.85;1.67;;;7.40;99.90;;;;;;5010588;28;19925;-60
2022/12/28 09:50:28;;;;;;;6.07;2.10;;;7.50;99.90;;;;;;5008457;28;20037;-54
2022/12/28 09:53:04;;;;;;;3.10;1.95;;;7.80;99.90;;;;;;5005969;28;20157;-58
2022/12/28 09:55:37;;;;;;;6.57;2.47;;;8.20;99.90;;;;;;5021542;28;20143;-59
2022/12/28 09:58:10;;;;;;;4.85;2.30;;;8.50;99.90;;;;;;5011252;28;20406;-59
2022/12/28 10:00:46;;;;;;;3.60;2.42;;;8.70;99.90;;;;;;5007017;28;20073;-54
2022/12/28 10:03:21;;;;;;;5.65;2.90;;;9.00;99.90;;;;;;5006442;28;20223;-58
2022/12/28 10:05:50;;;;;;;5.63;2.75;;;9.30;99.90;;;;;;5007206;28;20511;-51
2022/12/28 10:08:20;;;;;;;3.97;2.42;;;9.60;99.90;;;;;;5011039;28;20045;-52
2022/12/28 10:10:49;;;;;;;2.72;1.65;;;10.00;99.90;;;;;;5012215;28;20052;-54
2022/12/28 10:13:22;;;;;;;2.70;2.10;;;10.40;99.90;;;;;;5007721;28;20053;-52
2022/12/28 10:16:21;;;;;;;5.20;2.70;;;10.70;99.90;;;;;;5020775;28;20052;-53
2022/12/28 10:18:48;;;;;;;7.18;2.38;;;10.90;99.90;;;;;;5009600;28;20053;-53
2022/12/28 10:21:19;;;;;;;3.83;1.95;;;11.00;99.90;;;;;;5011162;28;20045;-54
2022/12/28 10:23:49;;;;;;;4.90;2.08;;;11.10;99.90;;;;;;5010482;28;20086;-48
2022/12/28 10:26:36;;;;;;;2.63;1.60;;;11.10;99.90;;;;;;5011875;28;20048;-47
2022/12/28 10:29:03;;;;;;;3.28;1.90;;;11.20;99.90;;;;;;5011887;28;20128;-51
2022/12/28 10:31:38;;;;;;;2.85;1.83;;;11.30;99.90;;;;;;5007994;28;20079;-48
2022/12/28 10:34:21;;;;;;;2.72;1.85;;;11.30;99.00;;;;;;5010581;28;20052;-47
2022/12/28 10:36:49;;;;;;;2.10;1.55;;;11.30;98.30;;;;;;5007670;28;20796;-47
2022/12/28 10:39:24;;;;;;;4.35;2.13;;;11.40;99.90;;;;;;5009253;28;20053;-49
2022/12/28 10:41:52;;;;;;;2.53;1.40;;;11.50;90.70;;;;;;5009183;28;20532;-50
2022/12/28 10:44:24;;;;;;;4.40;1.90;;;11.60;94.40;;;;;;5010089;28;20909;-48
2022/12/28 10:47:29;;;;;;;3.65;1.60;;;11.70;94.40;;;;;;5010678;28;20389;-49
2022/12/28 10:49:56;;;;;;;3.88;1.30;;;11.90;95.10;;;;;;5009881;28;20876;-48
2022/12/28 10:52:55;;;;;;;4.90;1.67;;;12.10;92.30;;;;;;5005806;28;20655;-47
2022/12/28 10:55:30;;;;;;;1.83;1.00;;;12.20;91.70;;;;;;5006148;28;20044;-53
2022/12/28 10:58:19;;;;;;;4.68;1.67;;;12.20;90.30;;;;;;5009855;28;20400;-52
2022/12/28 11:01:06;;;;;;;2.05;1.13;;;12.20;86.90;;;;;;5011663;28;20053;-53
2022/12/28 11:03:36;;;;;;;4.88;1.17;;;12.00;87.90;;;;;;5007496;28;20055;-52
2022/12/28 11:06:15;;;;;;;2.88;1.42;;;11.90;90.90;;;;;;5023037;28;20552;-52
2022/12/28 11:09:13;;;;;;;5.28;1.52;;;11.90;82.60;;;;;;5009253;28;20052;-53
2022/12/28 11:11:42;;;;;;;4.22;1.45;;;11.90;86.00;;;;;;5010680;28;20111;-53
2022/12/28 11:14:31;;;;;;;1.30;1.05;;;12.10;85.10;;;;;;5024211;28;20045;-53
2022/12/28 11:17:11;;;;;;;2.08;1.30;;;12.30;81.50;;;;;;5009560;28;20040;-50
2022/12/28 11:19:38;;;;;;;2.13;1.15;;;12.50;81.10;;;;;;5009401;28;20053;-52
2022/12/28 11:22:07;;;;;;;;;;;12.70;81.50;;;;;;5011054;28;20045;-53
2022/12/28 11:24:34;;;;;;;2.35;0.60;;;12.80;86.50;;;;;;5007086;28;20423;-52
2022/12/28 11:27:15;;;;;;;1.30;0.70;;;13.00;78.00;;;;;;5008801;28;20076;-52
2022/12/28 11:29:45;;;;;;;3.00;0.80;;;13.20;74.30;;;;;;5010733;28;20044;-53
2022/12/28 11:32:35;;;;;;;1.25;0.60;;;13.50;75.00;;;;;;5006700;28;20049;-53
2022/12/28 11:35:02;;;;;;;0.63;0.50;;;13.70;66.90;;;;;;5011277;28;20361;-53
2022/12/28 11:37:29;;;;;;;0.82;0.70;;;13.90;65.10;;;;;;5007323;28;20687;-52
2022/12/28 11:39:57;;;;;;;;;;;14.00;63.00;;;;;;5006652;28;20128;-51
2022/12/28 11:42:33;;;;;;;4.22;0.75;;;14.10;63.20;;;;;;5010135;28;20627;-53
2022/12/28 11:45:15;;;;;;;2.25;0.88;;;14.20;61.10;;;;;;5008932;28;20160;-52
2022/12/28 11:47:44;;;;;;;1.38;0.80;;;14.20;58.60;;;;;;5007210;28;20300;-53
2022/12/28 11:50:33;;;;;;;1.30;0.90;;;14.10;57.40;;;;;;5021655;28;20037;-54
2022/12/28 11:53:02;;;;;;;1.15;0.77;;;14.00;59.80;;;;;;5007652;28;20107;-52
2022/12/28 11:56:10;;;;;;;1.48;0.60;;;14.00;61.70;;;;;;5016965;28;20050;-52
2022/12/28 11:58:39;;;;;;;1.05;0.80;;;13.80;60.50;;;;;;4966186;28;20537;-52
2022/12/28 12:01:35;;;;;;;3.13;1.33;;;13.80;62.40;;;;;;4999998;28;20073;-51
2022/12/28 12:04:02;;;;;;;1.02;0.70;;;13.90;62.20;;;;;;5022281;28;20046;-52
2022/12/28 12:06:41;;;;;;;1.75;0.75;;;14.00;57.70;;;;;;5009644;28;20437;-54
2022/12/28 12:09:20;;;;;;;3.22;0.68;;;14.10;59.60;;;;;;5017288;28;20060;-50
2022/12/28 12:11:52;;;;;;;2.92;1.23;;;14.20;60.50;;;;;;5023474;28;20146;-53
2022/12/28 12:14:27;;;;;;;3.35;1.42;;;14.30;59.80;;;;;;5008531;28;20057;-54
2022/12/28 12:17:25;;;;;;;1.35;0.90;;;14.20;58.90;;;;;;5012517;28;20114;-53
2022/12/28 12:20:00;;;;;;;1.45;0.90;;;14.20;59.00;;;;;;5008139;28;20330;-53
2022/12/28 12:22:42;;;;;;;1.55;1.00;;;14.10;59.60;;;;;;5010477;28;20042;-53
2022/12/28 12:25:15;;;;;;;2.28;0.98;;;14.00;58.50;;;;;;5010232;28;20071;-52
2022/12/28 12:27:47;;;;;;;1.42;0.82;;;14.00;59.70;;;;;;5009442;28;20491;-53
2022/12/28 12:30:17;;;;;;;5.05;0.90;;;14.00;59.60;;;;;;5007219;28;20273;-54
2022/12/28 12:32:54;;;;;;;4.35;0.98;;;14.00;59.90;;;;;;5021821;28;20045;-53
2022/12/28 12:35:24;;;;;;;1.10;0.82;;;14.10;59.80;;;;;;5009431;28;20842;-53
2022/12/28 12:38:19;;;;;;;1.23;0.77;;;14.20;58.80;;;;;;5017882;28;20496;-53
2022/12/28 12:40:49;;;;;;;1.35;0.68;;;14.30;58.90;;;;;;5017148;28;20354;-55
2022/12/28 12:43:36;;;;;;;1.83;0.73;;;14.40;57.70;;;;;;5008005;28;20041;-54
2022/12/28 12:46:29;;;;;;;2.65;0.70;;;14.50;56.10;;;;;;5010874;28;20052;-53
2022/12/28 12:49:17;;;;;;;2.20;1.40;;;14.60;57.20;;;;;;5011675;28;20049;-56
2022/12/28 12:52:17;;;;;;;3.90;1.23;;;14.70;55.70;;;;;;5011360;28;20438;-53
2022/12/28 12:55:17;;;;;;;2.67;1.00;;;14.60;57.10;;;;;;5003238;28;20137;-53
2022/12/28 12:57:56;;;;;;;1.35;0.82;;;14.60;57.20;;;;;;5010206;28;20598;-55
2022/12/28 13:00:47;;;;;;;1.85;1.08;;;14.60;57.70;;;;;;5021664;28;20145;-54
2022/12/28 13:03:39;;;;;;;0.70;0.70;;;14.70;57.70;;;;;;5010828;28;20426;-55
2022/12/28 13:06:07;;;;;;;0.82;0.60;;;14.70;55.80;;;;;;5009337;28;20131;-54
2022/12/28 13:08:46;;;;;;;2.25;0.82;;;14.50;55.90;;;;;;5009526;28;20060;-54
2022/12/28 13:11:14;;;;;;;0.80;0.70;;;14.40;57.70;;;;;;5010747;28;20115;-54
2022/12/28 13:13:44;;;;;;;1.92;1.00;;;14.20;58.40;;;;;;5011378;28;20038;-54
2022/12/28 13:16:15;;;;;;;0.88;0.70;;;14.10;58.40;;;;;;5004890;28;20806;-54
2022/12/28 13:18:56;;;;;;;2.05;1.00;;;14.00;59.70;;;;;;5011887;28;20049;-55
2022/12/28 13:21:26;;;;;;;1.10;0.70;;;13.90;59.20;;;;;;5010925;28;20049;-55
2022/12/28 13:23:53;;;;;;;1.48;0.70;;;13.70;57.80;;;;;;5011526;28;20327;-55
2022/12/28 13:26:28;;;;;;;3.47;0.90;;;13.60;58.10;;;;;;5020010;28;20048;-55
2022/12/28 13:28:59;;;;;;;1.80;1.40;;;13.40;57.70;;;;;;5011068;28;20059;-54
2022/12/28 13:31:41;;;;;;;0.90;0.60;;;13.20;58.90;;;;;;5027363;28;20734;-53
2022/12/28 13:34:37;;;;;;;1.20;0.90;;;13.00;60.10;;;;;;5008943;28;20143;-54
2022/12/28 13:37:15;;;;;;;1.67;0.75;;;12.80;61.70;;;;;;4998393;28;20053;-54
2022/12/28 13:39:42;;;;;;;2.05;1.10;;;12.50;64.40;;;;;;5006896;28;20077;-54
2022/12/28 13:42:20;;;;;;;;;;;12.40;65.70;;;;;;5012031;28;20492;-55
2022/12/28 13:44:49;;;;;;;1.33;0.93;;;12.30;65.60;;;;;;5008567;28;20415;-55
2022/12/28 13:47:38;;;;;;;1.73;0.80;;;12.10;66.70;;;;;;5011186;28;20137;-55
2022/12/28 13:50:19;;;;;;;0.75;0.73;;;11.80;69.20;;;;;;5008018;28;20144;-53
2022/12/28 13:52:49;;;;;;;4.78;0.80;;;11.70;71.80;;;;;;5008105;28;20038;-54
2022/12/28 13:55:22;;;;;;;0.85;0.80;;;11.60;73.80;;;;;;5005563;28;20491;-56
2022/12/28 13:57:55;;;;;;;1.88;1.30;;;11.40;75.90;;;;;;5006258;28;20037;-55